Archival Weather

Republic

Farmingdale, New York (KFRG)

Report from: Wednesday, February 7, 2024 10:53 AM EST
Current time: Saturday, June 22, 2024 6:26 AM EDT

Current weather – Weather history – Daily summaries
Weather forecast

Temperature5.0°C (41.0°F)
Wind chill1.5°C (34.7°F)
Dew point-5.0°C (23.0°F)
Winds 9 kts (4.6 m/s, 10.4 mph) North (360°)
Visibility10 mi. (16.1 km)
Clouds Sky clear
Altimeter30.31 in.Hg (1026 mB)
Relative humidity48 %
Density altitude-1,592 ft. (-485 m)
Sea-level pressure102.7 kPa (1027 mB, 30.32 in.Hg)
Remarks Automated weather observing station without precipitation discriminator
Flight conditions Visual Meteorological Conditions
Raw dataKFRG 071553Z 36009KT 10SM CLR 05/M05 A3031 RMK AO1 SLP266 T00501050
An error has occurred. This application may no longer respond until reloaded. Reload 🗙